Welkom op de website van Weerstation Hoek van Holland.

Onweer radar Meer informatie blitzortung!


Regen radar Meer informatie rain snow radar



METAR rapporten vliegvelden

   
EHRD - Rotterdam International Airport, NL
Afstand tot: Oost 31 km
Gewijzigd: 19-09-2019 05:55
Bewolking  
Bewolking  
   Wind: varieert 3.7 km/h
Wind: varieert 3.7 km/h
Temperatuur: 11°C
Dauwpunt: 10°C
Vochtigheid: 94%
Barometer: 1030 hPa
Bewolking: Overcast
Zicht: meer dan 10 km
Bewolking: Licht bewolkt 2700 ft,
Grotendeels bewolkt 3100 ft,
Bewolking 4700 ft
EHRD 190355Z AUTO VRB02KT 9999 FEW027 BKN031 OVC047 11/10 Q1030 REDZ NOSIG
EHAM - Amsterdam Schiphol, NL
Afstand tot: Noord 17 km
Gewijzigd: 19-09-2019 05:55
Bewolking  
Bewolking  
   Wind: WNW 5.6 km/h
Wind: WNW 5.6 km/h
Temperatuur: 11°C
Dauwpunt: 9°C
Vochtigheid: 88%
Barometer: 1029 hPa
Bewolking: Overcast
Zicht: meer dan 10 km
Bewolking: Licht bewolkt 2800 ft,
Bewolking 4000 ft
EHAM 190355Z 29003KT 9999 FEW028 OVC040 11/09 Q1029 NOSIG
EBAW - Antwerpen/Deurne, B
Afstand tot: Zuid 138 km
Gewijzigd: 19-09-2019 05:50
Bewolking  
Bewolking  
   Wind: varieert 1.9 km/h
Wind: varieert 1.9 km/h
Temperatuur: 9°C
Dauwpunt: 7°C
Vochtigheid: 87%
Barometer: 1030 hPa
Bewolking: Overcast
Zicht: meer dan 10 km
Bewolking: Licht bewolkt 4100 ft,
Bewolking 4700 ft
EBAW 190350Z AUTO VRB01KT 9999 // FEW041/// OVC047/// 09/07 Q1030
EHEH - Eindhoven, NL
Afstand tot: OZO 140 km
Gewijzigd: 19-09-2019 05:55
Bewolking  
Bewolking  
   Wind: Kalm
Wind: Kalm
Temperatuur: 8°C
Dauwpunt: 7°C
Vochtigheid: 93%
Barometer: 1029 hPa
Bewolking: Overcast
Zicht: meer dan 10 km
Bewolking: Bewolking 4500 ft
EHEH 190355Z AUTO 00000KT 9999 OVC045 08/07 Q1029 BLU
  

Script ontwikkeld door  Saratoga-weather.org Aangepast voor de template door  Weerstation Leuven

Apparatuur in gebruik:

Weerstation
Davis VP2

Weerprogramma
Meteobridge

Weercomputer
meteobridge met meteostick

Webleverancier
Strato

Davis VP2

Meteobridge

meteobridge met meteostick

Strato